Southbridge, MA

11:57 PM EDT on September 22, 2014 (GMT -0400)
North Central State | Change Station
CLOSE
Current Station
Airport
Location: Pawtucket,
Elevation: 440 ft
Nearby Weather Stations

Elev 440 ft 41.92 °N, 71.49 °W | Updated 13 hours ago

Clear
Clear
45 °F
Feels Like 45 °F
N
5
Wind Variable Wind from WNW
Gusts 9 mph

Today
High -- | Low -- °F
--% Chance of Precip.
Yesterday
High -- | Low -- °F
Precip. -- in
6:35 AM 6:45 PM
Waning Crescent, 1% visible
Pressure 29.77 in
Visibility 10.0 miles
Clouds Few 3700 ft
Dew Point 37 °F
Humidity 77%
Rainfall 0.01 in
Snow Depth Not available.
UV 6 out of 12
Pollen 3.90 out of 12
Air Quality Not available.
Flu Activity Not available.
METAR KSFZ 221455Z 27009G18KT 240V300 10SM FEW037 20/09 A2977 RMK AO1 52024

More Conditions Fewer Conditions

Pressure 29.77 in
Visibility 10.0 miles
Clouds Few 3700 ft
Dew Point 37 °F
Humidity 77%
Rainfall 0.01 in
Snow Depth Not available.
UV 6 out of 12
Pollen 3.90 out of 12
Air Quality Not available.
Flu Activity Not available.
METAR KSFZ 221455Z 27009G18KT 240V300 10SM FEW037 20/09 A2977 RMK AO1 52024

More Conditions Fewer Conditions

10-Day Weather Forecast

Almanac

Astronomy

Sep. 22, 2014 Rise Set
Actual Time 6:35 AM EDT 6:45 PM EDT
Civil Twilight 6:07 AM EDT 7:13 PM EDT
Nautical Twilight 5:34 AM EDT 7:45 PM EDT
Astronomical Twilight 5:01 AM EDT 8:19 PM EDT
Moon 5:00 AM EDT (9/22) 5:52 PM EDT (9/22)
Length of Visible Light 13h 05m
Length of Day
12h 09m
Tomorrow will be 2m 49s shorter.
Waning Crescent, 1% of the Moon is Illuminated
Today
Waning Crescent
Sep 24
New
Oct 1
First Quarter
Oct 8
Full
Oct 15
Last Quarter

Today's Extremes

State Highs State Lows

Community

WunderPhotos

Upload Photos

1,755,606 photos uploaded!

Nearby

Air Quality

  Air Quality AQ Index Pollutant
Yesterday Good
OZONE
Yesterday Good
PM2.5
Monday Good
PM2.5
Monday Good
OZONE
Tuesday Good
PM2.5
Tuesday Good
OZONE

Snow Depth

Station Depth Elevation
No new snow has been reported.

Earthquake Activity

City Distance Mag. Time & Date
No recent earthquake activity has been reported nearby.
Minimum magnitude displayed is 2.5.

Coastal Water Temperatures

Place Temperature
No Stations Reporting

Nearby Weather Stations